Time;durP1;ratioP1;P1;durP2;ratioP2;P2;SDS_P1;SDS_P2;PMS_P1;PMS_P2;Temp;Humidity;BMP_temperature;BMP_pressure;BME280_temperature;BME280_humidity;BME280_pressure;Samples;Min_cycle;Max_cycle;Signal;HPM_P1;HPM_P2
2022/04/12 08:28:48;;;;;;;9.43;2.05;;;;;;;;;;5045754;28;81385;-59
2022/04/12 08:31:14;;;;;;;11.70;1.80;;;;;;;;;;5031239;28;20045;-62
2022/04/12 08:33:40;;;;;;;4.75;1.42;;;;;;;;;;5039798;28;20054;-60
2022/04/12 08:36:05;;;;;;;8.07;1.63;;;;;;;;;;5043234;28;20036;-61
2022/04/12 08:38:31;;;;;;;6.93;1.70;;;;;;;;;;5049032;28;20401;-60
2022/04/12 08:40:56;;;;;;;11.48;2.45;;;;;;;;;;5045048;28;20053;-59
2022/04/12 08:43:23;;;;;;;9.40;4.10;;;;;;;;;;5029482;28;20061;-60
2022/04/12 08:45:50;;;;;;;13.10;4.25;;;;;;;;;;5040812;28;20041;-59
2022/04/12 08:48:16;;;;;;;9.30;3.90;;;;;;;;;;5045379;28;20033;-60
2022/04/12 08:50:42;;;;;;;11.75;3.72;;;;;;;;;;5036459;28;20038;-67
2022/04/12 08:53:09;;;;;;;8.80;2.97;;;;;;;;;;5046328;28;20116;-61
2022/04/12 08:55:34;;;;;;;9.45;2.83;;;;;;;;;;5034277;28;20493;-58
2022/04/12 08:58:00;;;;;;;10.18;2.50;;;;;;;;;;5032128;28;20030;-60
2022/04/12 09:00:25;;;;;;;6.88;2.38;;;;;;;;;;5025295;28;20092;-57
2022/04/12 09:02:58;;;;;;;10.10;2.80;;;;;;;;;;5028824;28;20473;-59
2022/04/12 09:05:26;;;;;;;6.13;2.67;;;;;;;;;;5020453;28;20042;-57
2022/04/12 09:07:52;;;;;;;19.10;2.58;;;;;;;;;;5015569;28;20041;-58
2022/04/12 09:10:19;;;;;;;4.18;2.22;;;;;;;;;;5020406;28;20091;-57
2022/04/12 09:12:45;;;;;;;12.55;3.47;;;;;;;;;;5015415;28;20033;-57
2022/04/12 09:15:12;;;;;;;12.25;2.53;;;;;;;;;;5019690;28;20732;-56
2022/04/12 09:17:39;;;;;;;8.63;2.05;;;;;;;;;;5019442;28;20401;-55
2022/04/12 09:20:11;;;;;;;5.95;2.15;;;;;;;;;;5021724;28;20158;-56
2022/04/12 09:22:37;;;;;;;7.00;2.33;;;;;;;;;;5020305;28;20557;-53
2022/04/12 09:25:04;;;;;;;7.75;2.30;;;;;;;;;;5016477;28;20045;-55
2022/04/12 09:27:32;;;;;;;4.00;1.80;;;;;;;;;;5018045;28;20057;-55
2022/04/12 09:30:03;;;;;;;7.35;2.35;;;;;;;;;;5021982;28;20053;-56
2022/04/12 09:32:30;;;;;;;5.10;1.83;;;;;;;;;;5021276;28;20037;-55
2022/04/12 09:34:56;;;;;;;6.05;2.05;;;;;;;;;;5020533;28;20135;-54
2022/04/12 09:37:27;;;;;;;6.28;1.92;;;;;;;;;;5016778;28;20943;-55
2022/04/12 09:40:05;;;;;;;5.95;1.90;;;;;;;;;;5009815;28;20057;-58
2022/04/12 09:43:02;;;;;;;5.10;1.90;;;;;;;;;;5007249;28;20041;-57
2022/04/12 09:45:30;;;;;;;6.75;2.33;;;;;;;;;;5003035;28;20068;-58
2022/04/12 10:10:06;;;;;;;13.45;5.35;;;;;;;;;;5056701;27;20433;-70
2022/04/12 10:12:34;;;;;;;12.32;5.55;;;;;;;;;;5054720;28;20056;-71
2022/04/12 10:15:01;;;;;;;13.82;6.50;;;;;;;;;;5052851;28;20048;-71
2022/04/12 10:17:26;;;;;;;9.63;5.85;;;;;;;;;;5018620;28;20058;-71
2022/04/12 10:19:52;;;;;;;12.93;6.25;;;;;;;;;;5019196;28;20045;-71
2022/04/12 10:22:17;;;;;;;14.57;7.03;;;;;;;;;;5018326;28;20087;-71
2022/04/12 10:24:43;;;;;;;12.77;6.80;;;;;;;;;;5018651;28;20033;-69
2022/04/12 10:28:02;;;;;;;12.15;6.38;;;;;;;;;;5029776;28;20046;-71
2022/04/12 10:31:22;;;;;;;12.20;5.72;;;;;;;;;;5015751;28;20137;-71
2022/04/12 10:35:00;;;;;;;9.07;5.63;;;;;;;;;;5002194;28;20081;-71
2022/04/12 10:37:25;;;;;;;11.77;6.22;;;;;;;;;;4996537;28;20026;-71
2022/04/12 10:39:56;;;;;;;9.27;6.22;;;;;;;;;;5001172;28;20479;-70
2022/04/12 10:42:26;;;;;;;18.33;6.68;;;;;;;;;;4993174;28;20188;-70
2022/04/12 10:44:55;;;;;;;11.30;6.28;;;;;;;;;;5005938;28;20043;-71
2022/04/12 10:47:30;;;;;;;14.38;6.10;;;;;;;;;;5008258;28;20045;-70
2022/04/12 10:49:59;;;;;;;12.73;6.57;;;;;;;;;;5022061;28;20065;-70
2022/04/12 10:52:34;;;;;;;18.25;6.88;;;;;;;;;;5003123;28;20041;-71
2022/04/12 10:55:00;;;;;;;11.75;6.28;;;;;;;;;;4994193;28;20046;-70
2022/04/12 10:57:26;;;;;;;13.00;5.97;;;;;;;;;;5008686;28;20033;-70
2022/04/12 10:59:59;;;;;;;12.77;5.63;;;;;;;;;;5020504;28;20034;-70
2022/04/12 11:02:29;;;;;;;11.65;6.25;;;;;;;;;;5015815;28;20050;-71
2022/04/12 11:04:55;;;;;;;11.38;5.28;;;;;;;;;;4996503;28;20122;-71
2022/04/12 11:07:37;;;;;;;12.32;5.55;;;;;;;;;;5007395;28;20046;-70
2022/04/12 11:10:08;;;;;;;10.90;5.18;;;;;;;;;;5002053;28;20046;-70
2022/04/12 11:12:43;;;;;;;13.25;5.78;;;;;;;;;;5022489;28;20081;-71
2022/04/12 11:15:21;;;;;;;14.52;6.63;;;;;;;;;;5008229;28;20442;-70
2022/04/12 11:17:46;;;;;;;16.08;6.18;;;;;;;;;;4993007;28;20041;-70
2022/04/12 11:20:22;;;;;;;15.25;4.95;;;;;;;;;;4983788;28;20035;-70
2022/04/12 11:22:59;;;;;;;17.45;6.03;;;;;;;;;;4976238;28;20053;-70
2022/04/12 11:25:26;;;;;;;17.92;4.47;;;;;;;;;;4998109;28;20065;-70
2022/04/12 11:27:59;;;;;;;15.45;5.32;;;;;;;;;;4996251;28;20402;-70
2022/04/12 11:30:25;;;;;;;12.57;4.45;;;;;;;;;;4992802;28;20443;-70
2022/04/12 11:32:54;;;;;;;16.40;4.78;;;;;;;;;;5008092;28;20084;-70
2022/04/12 11:35:20;;;;;;;13.73;4.80;;;;;;;;;;4988005;28;20506;-70
2022/04/12 11:37:46;;;;;;;15.23;5.50;;;;;;;;;;4992532;28;20042;-70
2022/04/12 11:40:12;;;;;;;18.70;4.80;;;;;;;;;;4981215;28;20034;-71
2022/04/12 11:42:37;;;;;;;14.57;4.35;;;;;;;;;;4980829;28;20053;-71
2022/04/12 11:45:03;;;;;;;16.73;4.93;;;;;;;;;;4987255;28;20038;-71
2022/04/12 11:47:33;;;;;;;18.92;5.00;;;;;;;;;;4987870;28;20038;-71
2022/04/12 11:49:59;;;;;;;17.85;5.60;;;;;;;;;;4983927;28;20134;-71
2022/04/12 11:52:26;;;;;;;17.10;6.13;;;;;;;;;;4987708;28;20117;-70
2022/04/12 11:54:51;;;;;;;23.70;6.93;;;;;;;;;;4987685;28;20030;-72
2022/04/12 11:57:20;;;;;;;19.65;5.00;;;;;;;;;;4986515;28;20137;-70
2022/04/12 11:59:48;;;;;;;17.63;4.70;;;;;;;;;;4985087;28;20511;-70
2022/04/12 12:02:15;;;;;;;15.65;5.32;;;;;;;;;;4982820;28;20034;-70
2022/04/12 12:04:47;;;;;;;24.17;5.15;;;;;;;;;;5000322;28;20035;-70
2022/04/12 12:07:14;;;;;;;16.05;5.05;;;;;;;;;;4982798;28;20069;-70
2022/04/12 12:09:50;;;;;;;14.27;5.28;;;;;;;;;;4987273;28;20050;-70
2022/04/12 12:12:16;;;;;;;23.35;5.40;;;;;;;;;;4982957;28;20061;-70
2022/04/12 12:14:41;;;;;;;18.73;5.45;;;;;;;;;;4988331;28;20089;-70
2022/04/12 12:17:09;;;;;;;17.30;5.40;;;;;;;;;;5001094;28;20043;-70
2022/04/12 12:19:38;;;;;;;21.73;5.15;;;;;;;;;;4983051;28;20043;-71
2022/04/12 12:22:14;;;;;;;17.30;5.55;;;;;;;;;;4984929;28;20057;-70
2022/04/12 12:24:55;;;;;;;13.68;5.20;;;;;;;;;;4978778;28;20038;-71
2022/04/12 12:27:34;;;;;;;19.80;5.00;;;;;;;;;;4986855;28;20031;-71
2022/04/12 12:30:14;;;;;;;20.63;6.30;;;;;;;;;;5000486;28;20077;-71
2022/04/12 12:32:41;;;;;;;17.58;6.93;;;;;;;;;;4982497;28;20044;-71
2022/04/12 12:35:12;;;;;;;24.13;6.32;;;;;;;;;;5009131;28;20038;-71
2022/04/12 12:37:39;;;;;;;20.45;5.95;;;;;;;;;;4992924;28;20061;-71
2022/04/12 12:40:19;;;;;;;19.60;5.60;;;;;;;;;;4995132;28;20038;-71
2022/04/12 12:42:45;;;;;;;19.33;5.70;;;;;;;;;;4988248;28;20038;-71
2022/04/12 12:45:12;;;;;;;21.92;6.75;;;;;;;;;;4996179;28;20097;-71
2022/04/12 12:47:44;;;;;;;19.10;5.95;;;;;;;;;;5002181;28;20682;-71
2022/04/12 12:50:14;;;;;;;17.23;5.57;;;;;;;;;;4987862;28;20042;-71
2022/04/12 12:52:40;;;;;;;17.98;5.72;;;;;;;;;;4987967;28;20048;-71
2022/04/12 12:55:18;;;;;;;17.48;4.90;;;;;;;;;;4972422;28;20030;-71
2022/04/12 12:57:49;;;;;;;17.15;5.18;;;;;;;;;;4986318;28;20403;-71
2022/04/12 13:00:18;;;;;;;24.08;5.93;;;;;;;;;;4985943;28;20475;-72
2022/04/12 13:02:44;;;;;;;19.63;6.10;;;;;;;;;;4984111;28;20046;-71
2022/04/12 13:05:11;;;;;;;21.88;5.85;;;;;;;;;;4973693;28;20042;-72
2022/04/12 13:07:38;;;;;;;18.40;6.53;;;;;;;;;;4977138;28;20041;-72
2022/04/12 13:10:12;;;;;;;22.13;4.75;;;;;;;;;;4975264;28;20104;-72
2022/04/12 13:12:38;;;;;;;;;;;;;;;;;;4973334;28;20359;-72
2022/04/12 13:15:06;;;;;;;17.77;4.70;;;;;;;;;;4972008;28;19933;-72
2022/04/12 13:17:32;;;;;;;16.70;4.38;;;;;;;;;;4975628;28;20108;-71
2022/04/12 13:19:57;;;;;;;20.17;4.88;;;;;;;;;;4976691;28;20038;-71
2022/04/12 13:22:24;;;;;;;18.48;4.60;;;;;;;;;;4980135;28;20049;-72
2022/04/12 13:24:49;;;;;;;19.30;4.50;;;;;;;;;;4976726;28;20079;-71
2022/04/12 13:27:15;;;;;;;16.27;4.35;;;;;;;;;;4981906;28;20080;-71
2022/04/12 13:29:40;;;;;;;15.43;4.28;;;;;;;;;;4981049;28;20398;-71
2022/04/12 13:32:06;;;;;;;17.05;4.35;;;;;;;;;;4980018;28;20382;-72
2022/04/12 13:34:32;;;;;;;16.55;4.18;;;;;;;;;;4975793;28;20030;-71
2022/04/12 13:36:57;;;;;;;20.52;4.32;;;;;;;;;;4980114;28;20038;-71
2022/04/12 13:39:23;;;;;;;16.50;4.75;;;;;;;;;;4968479;28;20030;-71
2022/04/12 13:41:52;;;;;;;16.83;4.10;;;;;;;;;;4979820;28;20042;-71
2022/04/12 13:44:17;;;;;;;22.73;4.00;;;;;;;;;;4998007;28;20035;-71
2022/04/12 13:46:43;;;;;;;19.02;4.43;;;;;;;;;;4981913;28;20041;-71
2022/04/12 13:49:08;;;;;;;13.27;4.35;;;;;;;;;;4980132;28;20046;-70
2022/04/12 13:51:34;;;;;;;19.17;5.20;;;;;;;;;;4979273;28;20034;-71
2022/04/12 13:54:00;;;;;;;14.27;4.50;;;;;;;;;;4968060;28;20054;-71
2022/04/12 13:56:25;;;;;;;16.05;3.88;;;;;;;;;;4971715;28;21215;-72
2022/04/12 13:58:51;;;;;;;16.00;4.10;;;;;;;;;;4969450;28;21230;-72
2022/04/12 14:01:16;;;;;;;12.95;3.90;;;;;;;;;;4971952;28;20077;-71
2022/04/12 14:03:42;;;;;;;19.75;4.38;;;;;;;;;;4970063;28;20034;-70
2022/04/12 14:06:07;;;;;;;24.25;4.20;;;;;;;;;;4971942;28;20129;-70
2022/04/12 14:08:35;;;;;;;15.65;4.53;;;;;;;;;;4973139;28;20053;-70
2022/04/12 14:11:01;;;;;;;23.02;4.57;;;;;;;;;;4973613;28;20482;-70
2022/04/12 14:13:26;;;;;;;22.70;4.90;;;;;;;;;;4970628;28;20058;-70
2022/04/12 14:15:52;;;;;;;17.80;4.70;;;;;;;;;;4973661;28;20034;-70
2022/04/12 14:18:20;;;;;;;13.57;4.50;;;;;;;;;;4974358;28;20046;-70
2022/04/12 14:20:46;;;;;;;14.05;4.38;;;;;;;;;;4971501;28;20053;-70
2022/04/12 14:23:12;;;;;;;17.00;4.95;;;;;;;;;;4964849;28;20049;-71
2022/04/12 14:25:39;;;;;;;19.45;5.18;;;;;;;;;;4972831;28;20054;-71
2022/04/12 14:28:05;;;;;;;18.23;3.67;;;;;;;;;;4968848;28;20104;-71
2022/04/12 14:30:31;;;;;;;21.45;5.00;;;;;;;;;;4972038;28;20397;-71
2022/04/12 14:32:57;;;;;;;26.92;7.80;;;;;;;;;;4970408;28;20153;-71
2022/04/12 14:35:22;;;;;;;20.83;5.15;;;;;;;;;;4986579;28;20046;-70
2022/04/12 14:37:47;;;;;;;15.68;4.50;;;;;;;;;;4969108;28;20966;-70
2022/04/12 14:40:13;;;;;;;12.77;4.57;;;;;;;;;;4970544;28;20391;-70
2022/04/12 14:42:39;;;;;;;15.15;3.78;;;;;;;;;;4971115;28;20793;-70
2022/04/12 14:45:05;;;;;;;14.55;4.47;;;;;;;;;;4968645;28;20038;-70
2022/04/12 14:47:31;;;;;;;19.45;5.10;;;;;;;;;;4964788;28;20553;-71
2022/04/12 14:49:57;;;;;;;17.35;4.78;;;;;;;;;;4971703;28;20045;-70
2022/04/12 14:52:24;;;;;;;12.30;4.43;;;;;;;;;;4973519;28;20378;-70
2022/04/12 14:54:50;;;;;;;20.17;4.78;;;;;;;;;;4977031;28;20050;-70
2022/04/12 14:57:16;;;;;;;23.15;5.22;;;;;;;;;;4963321;28;20031;-69
2022/04/12 14:59:41;;;;;;;19.20;5.25;;;;;;;;;;4981431;28;20045;-69
2022/04/12 15:02:07;;;;;;;16.05;5.00;;;;;;;;;;4983179;28;20034;-69
2022/04/12 15:04:32;;;;;;;26.42;5.70;;;;;;;;;;4982165;28;20042;-69
2022/04/12 15:06:57;;;;;;;19.88;4.78;;;;;;;;;;4981993;28;20046;-69
2022/04/12 15:09:23;;;;;;;19.88;4.53;;;;;;;;;;4978107;28;20065;-69
2022/04/12 15:11:48;;;;;;;15.85;4.78;;;;;;;;;;4982199;28;20410;-69
2022/04/12 15:14:14;;;;;;;19.17;5.20;;;;;;;;;;4982865;28;20068;-69
2022/04/12 15:16:39;;;;;;;20.20;5.90;;;;;;;;;;4981976;28;20045;-70
2022/04/12 15:19:05;;;;;;;12.48;3.72;;;;;;;;;;4981632;28;20078;-70
2022/04/12 15:21:32;;;;;;;29.23;5.97;;;;;;;;;;4980396;28;20027;-70
2022/04/12 15:23:58;;;;;;;23.27;7.30;;;;;;;;;;4966073;28;20045;-70
2022/04/12 15:26:23;;;;;;;20.30;5.55;;;;;;;;;;4979607;28;20394;-71
2022/04/12 15:28:49;;;;;;;19.48;5.32;;;;;;;;;;4977890;28;20038;-71
2022/04/12 15:31:14;;;;;;;29.42;6.30;;;;;;;;;;4980316;28;20027;-71
2022/04/12 15:33:40;;;;;;;21.85;5.68;;;;;;;;;;4978434;28;20995;-71
2022/04/12 15:36:05;;;;;;;20.33;4.93;;;;;;;;;;4979553;28;20029;-71
2022/04/12 15:38:31;;;;;;;18.23;4.95;;;;;;;;;;4967379;28;20524;-71
2022/04/12 15:40:56;;;;;;;29.55;5.75;;;;;;;;;;4972273;28;20961;-71
2022/04/12 15:43:22;;;;;;;25.90;5.90;;;;;;;;;;4971112;28;20498;-72
2022/04/12 15:45:47;;;;;;;21.17;6.18;;;;;;;;;;4975196;28;20088;-71
2022/04/12 15:48:13;;;;;;;17.77;5.63;;;;;;;;;;4962285;28;20410;-72
2022/04/12 15:50:39;;;;;;;17.88;5.72;;;;;;;;;;4975628;28;20042;-72
2022/04/12 15:53:05;;;;;;;18.35;6.57;;;;;;;;;;4975636;28;20088;-71
2022/04/12 15:55:30;;;;;;;20.58;6.28;;;;;;;;;;4990043;28;20038;-71
2022/04/12 15:57:57;;;;;;;20.85;6.18;;;;;;;;;;4971908;28;20066;-71
2022/04/12 16:00:24;;;;;;;20.20;6.47;;;;;;;;;;4974018;28;20137;-71
2022/04/12 16:02:50;;;;;;;13.30;4.47;;;;;;;;;;4972761;28;20069;-70
2022/04/12 16:05:15;;;;;;;14.55;4.70;;;;;;;;;;4973069;28;21076;-70
2022/04/12 16:07:47;;;;;;;22.42;5.20;;;;;;;;;;4964428;28;20165;-71
2022/04/12 16:10:13;;;;;;;16.83;4.68;;;;;;;;;;4973517;28;20074;-71
2022/04/12 16:12:38;;;;;;;12.70;4.20;;;;;;;;;;4974932;28;20125;-70
2022/04/12 16:15:04;;;;;;;9.65;3.28;;;;;;;;;;4974961;28;20097;-71
2022/04/12 16:17:29;;;;;;;12.95;4.53;;;;;;;;;;4973682;28;20133;-71
2022/04/12 16:19:55;;;;;;;20.20;5.20;;;;;;;;;;4972694;28;20034;-70
2022/04/12 16:22:20;;;;;;;12.10;4.85;;;;;;;;;;4974081;28;20920;-71
2022/04/12 16:24:50;;;;;;;15.20;4.40;;;;;;;;;;4969673;28;20069;-71
2022/04/12 16:27:16;;;;;;;18.48;5.07;;;;;;;;;;4967330;28;20117;-71
2022/04/12 16:29:42;;;;;;;23.90;6.00;;;;;;;;;;4969808;28;20042;-71
2022/04/12 16:32:08;;;;;;;32.67;7.97;;;;;;;;;;4975772;28;20517;-71
2022/04/12 16:34:33;;;;;;;18.52;6.15;;;;;;;;;;4975811;28;20581;-70
2022/04/12 16:36:59;;;;;;;22.00;5.63;;;;;;;;;;4974073;28;20026;-70
2022/04/12 16:39:24;;;;;;;17.70;5.07;;;;;;;;;;4971466;28;20077;-71
2022/04/12 16:41:50;;;;;;;20.40;4.57;;;;;;;;;;4977389;28;21130;-71
2022/04/12 16:44:16;;;;;;;15.57;4.47;;;;;;;;;;4980190;28;20039;-71
2022/04/12 16:46:41;;;;;;;12.10;3.63;;;;;;;;;;4981432;28;20041;-70
2022/04/12 16:49:07;;;;;;;19.13;4.90;;;;;;;;;;4975917;28;20046;-71
2022/04/12 16:51:33;;;;;;;16.05;5.55;;;;;;;;;;4979622;28;20027;-71
2022/04/12 16:53:58;;;;;;;20.70;6.55;;;;;;;;;;4977177;28;20561;-71
2022/04/12 16:56:24;;;;;;;15.32;5.78;;;;;;;;;;4979885;28;20608;-71
2022/04/12 16:58:49;;;;;;;15.32;5.53;;;;;;;;;;4974281;28;20049;-71
2022/04/12 17:01:14;;;;;;;22.70;7.53;;;;;;;;;;4980245;28;20049;-71
2022/04/12 17:03:40;;;;;;;27.25;7.95;;;;;;;;;;4979068;28;20034;-71
2022/04/12 17:06:06;;;;;;;19.60;5.22;;;;;;;;;;4979951;28;20042;-71
2022/04/12 17:08:31;;;;;;;11.98;4.60;;;;;;;;;;4976562;28;20228;-71
2022/04/12 17:10:57;;;;;;;19.45;5.20;;;;;;;;;;4979562;28;20072;-71
2022/04/12 17:13:23;;;;;;;20.42;7.38;;;;;;;;;;4979149;28;20054;-71
2022/04/12 17:15:49;;;;;;;22.13;7.30;;;;;;;;;;4980717;28;20053;-70
2022/04/12 17:18:14;;;;;;;19.42;7.88;;;;;;;;;;4978934;28;20038;-70
2022/04/12 17:20:40;;;;;;;12.98;4.40;;;;;;;;;;4985926;28;20049;-70
2022/04/12 17:23:06;;;;;;;19.83;5.22;;;;;;;;;;4985407;28;20060;-72
2022/04/12 17:25:31;;;;;;;14.00;4.78;;;;;;;;;;4985131;28;20041;-70
2022/04/12 17:27:56;;;;;;;20.35;5.80;;;;;;;;;;4982714;28;20104;-71
2022/04/12 17:30:22;;;;;;;13.73;4.75;;;;;;;;;;4984835;28;20406;-70
2022/04/12 17:32:48;;;;;;;16.98;4.78;;;;;;;;;;4985918;28;20069;-71
2022/04/12 17:35:13;;;;;;;20.10;5.05;;;;;;;;;;4985837;28;20042;-71
2022/04/12 17:37:40;;;;;;;16.98;3.85;;;;;;;;;;4983727;28;20050;-71
2022/04/12 17:40:06;;;;;;;19.88;5.00;;;;;;;;;;4984891;28;20086;-71
2022/04/12 17:42:32;;;;;;;20.95;5.38;;;;;;;;;;4981517;28;20145;-71
2022/04/12 17:44:59;;;;;;;16.45;4.82;;;;;;;;;;4986805;28;20050;-71
2022/04/12 17:47:25;;;;;;;15.30;5.78;;;;;;;;;;4971716;28;20034;-71
2022/04/12 17:49:50;;;;;;;13.40;4.85;;;;;;;;;;4975207;28;20030;-71
2022/04/12 17:52:16;;;;;;;14.35;5.20;;;;;;;;;;4980649;28;20035;-71
2022/04/12 17:54:41;;;;;;;18.30;4.72;;;;;;;;;;4980505;28;20519;-70
2022/04/12 17:57:07;;;;;;;12.75;4.82;;;;;;;;;;4981659;28;20049;-71
2022/04/12 17:59:32;;;;;;;16.80;4.50;;;;;;;;;;4991358;28;20035;-70
2022/04/12 18:01:58;;;;;;;15.05;4.97;;;;;;;;;;4981035;28;20042;-71
2022/04/12 18:04:25;;;;;;;21.38;6.78;;;;;;;;;;4980407;28;20080;-71
2022/04/12 18:06:51;;;;;;;22.50;7.60;;;;;;;;;;4979386;28;20046;-70
2022/04/12 18:09:17;;;;;;;22.50;8.90;;;;;;;;;;4975655;28;20703;-71
2022/04/12 18:11:44;;;;;;;26.83;7.65;;;;;;;;;;4980727;28;20045;-71
2022/04/12 18:14:10;;;;;;;24.15;10.40;;;;;;;;;;4978707;28;20034;-70
2022/04/12 18:16:36;;;;;;;21.63;9.50;;;;;;;;;;4979476;28;20038;-70
2022/04/12 18:19:43;;;;;;;38.97;15.50;;;;;;;;;;4981953;28;20377;-69
2022/04/12 18:22:10;;;;;;;32.22;13.77;;;;;;;;;;4982817;28;20121;-69
2022/04/12 18:25:28;;;;;;;32.30;14.32;;;;;;;;;;5003170;28;20499;-69
2022/04/12 18:28:19;;;;;;;31.13;13.68;;;;;;;;;;4986557;28;20796;-69
2022/04/12 18:30:45;;;;;;;36.45;11.80;;;;;;;;;;4992345;28;20038;-69
2022/04/12 18:34:03;;;;;;;25.63;8.98;;;;;;;;;;4986189;28;20394;-69
2022/04/12 18:37:20;;;;;;;25.50;7.43;;;;;;;;;;4986707;28;20058;-69
2022/04/12 18:40:37;;;;;;;21.52;6.10;;;;;;;;;;4980441;28;20391;-69
2022/04/12 18:43:04;;;;;;;29.88;6.80;;;;;;;;;;4997241;28;20030;-69
2022/04/12 18:45:30;;;;;;;20.73;6.63;;;;;;;;;;4994547;28;20049;-69
2022/04/12 18:48:14;;;;;;;18.77;6.90;;;;;;;;;;4996975;28;20053;-70
2022/04/12 18:51:32;;;;;;;25.15;6.95;;;;;;;;;;4997471;28;20073;-70
2022/04/12 18:53:57;;;;;;;22.33;7.00;;;;;;;;;;4997354;28;20030;-69
2022/04/12 18:57:17;;;;;;;24.77;7.07;;;;;;;;;;4991328;28;20375;-70
2022/04/12 18:59:59;;;;;;;24.65;7.68;;;;;;;;;;4992796;28;20106;-69
2022/04/12 19:02:24;;;;;;;34.15;8.45;;;;;;;;;;4981458;28;20042;-70
2022/04/12 19:05:24;;;;;;;29.35;11.30;;;;;;;;;;4988709;28;20034;-70
2022/04/12 19:07:49;;;;;;;28.63;12.07;;;;;;;;;;4991545;28;20129;-70
2022/04/12 19:10:16;;;;;;;32.03;11.25;;;;;;;;;;4982897;28;20498;-69
2022/04/12 19:12:42;;;;;;;33.72;9.80;;;;;;;;;;4982060;28;20122;-70
2022/04/12 19:15:08;;;;;;;28.23;9.25;;;;;;;;;;4983249;28;20054;-70
2022/04/12 19:17:33;;;;;;;27.65;9.38;;;;;;;;;;4981922;28;20034;-70
2022/04/12 19:20:38;;;;;;;41.22;10.35;;;;;;;;;;4991460;28;20045;-70
2022/04/12 19:23:56;;;;;;;29.42;11.10;;;;;;;;;;4977454;28;20042;-70
2022/04/12 19:27:14;;;;;;;39.40;12.27;;;;;;;;;;4984399;28;20205;-70
2022/04/12 19:30:32;;;;;;;33.58;9.30;;;;;;;;;;4984988;28;20038;-70
2022/04/12 19:33:45;;;;;;;34.03;11.77;;;;;;;;;;4988455;28;20093;-70
2022/04/12 19:37:04;;;;;;;39.97;13.55;;;;;;;;;;4981229;28;20043;-69
2022/04/12 19:39:30;;;;;;;36.40;13.88;;;;;;;;;;4977578;28;20490;-70
2022/04/12 19:41:56;;;;;;;37.88;14.82;;;;;;;;;;4995771;28;20050;-70
2022/04/12 19:44:21;;;;;;;37.67;12.93;;;;;;;;;;4988954;28;20085;-70
2022/04/12 19:46:47;;;;;;;28.05;10.40;;;;;;;;;;4992103;28;20117;-70
2022/04/12 19:49:12;;;;;;;28.35;9.75;;;;;;;;;;4987189;28;20117;-70
2022/04/12 19:51:38;;;;;;;24.02;9.77;;;;;;;;;;5001968;28;20085;-69
2022/04/12 19:54:04;;;;;;;26.83;10.18;;;;;;;;;;4994693;28;20041;-69
2022/04/12 19:56:30;;;;;;;42.50;16.20;;;;;;;;;;5012265;28;20042;-70
2022/04/12 19:58:55;;;;;;;34.15;12.10;;;;;;;;;;5011272;28;20054;-70
2022/04/12 20:01:23;;;;;;;42.05;14.20;;;;;;;;;;4975894;28;20105;-70
2022/04/12 20:03:48;;;;;;;41.55;15.07;;;;;;;;;;4983388;28;20045;-70
2022/04/12 20:06:14;;;;;;;30.05;13.15;;;;;;;;;;4977512;28;20051;-70
2022/04/12 20:08:40;;;;;;;31.10;12.43;;;;;;;;;;4976130;28;20043;-70
2022/04/12 20:11:06;;;;;;;28.58;13.07;;;;;;;;;;4983598;28;20030;-70
2022/04/12 20:14:09;;;;;;;34.75;14.45;;;;;;;;;;4995356;28;20032;-70
2022/04/12 20:17:27;;;;;;;31.55;13.50;;;;;;;;;;4987729;28;20026;-70
2022/04/12 20:19:54;;;;;;;37.20;13.68;;;;;;;;;;4976356;28;20066;-69
2022/04/12 20:22:21;;;;;;;32.45;12.45;;;;;;;;;;4999066;28;20093;-69
2022/04/12 20:24:47;;;;;;;33.47;13.05;;;;;;;;;;4992887;28;20057;-69
2022/04/12 20:27:13;;;;;;;32.13;13.02;;;;;;;;;;4990578;28;20042;-69
2022/04/12 20:29:39;;;;;;;30.95;12.65;;;;;;;;;;4993387;28;20049;-69
2022/04/12 20:32:05;;;;;;;30.17;13.32;;;;;;;;;;4978672;28;20043;-69
2022/04/12 20:34:31;;;;;;;42.03;13.93;;;;;;;;;;4983481;28;20046;-69
2022/04/12 20:36:56;;;;;;;42.38;15.13;;;;;;;;;;4991497;28;20045;-68
2022/04/12 20:39:22;;;;;;;40.58;14.20;;;;;;;;;;4995339;28;20050;-69
2022/04/12 20:41:47;;;;;;;39.88;13.07;;;;;;;;;;4995087;28;20034;-68
2022/04/12 20:44:14;;;;;;;32.97;13.93;;;;;;;;;;4995491;28;20037;-69
2022/04/12 20:46:53;;;;;;;31.88;13.32;;;;;;;;;;4978814;28;20085;-69
2022/04/12 20:50:12;;;;;;;42.75;13.65;;;;;;;;;;4993862;28;20030;-68
2022/04/12 20:53:22;;;;;;;36.80;12.43;;;;;;;;;;4990207;28;20084;-69
2022/04/12 20:56:31;;;;;;;34.85;12.95;;;;;;;;;;4981644;28;20448;-68
2022/04/12 20:59:25;;;;;;;41.78;12.73;;;;;;;;;;4979256;28;20038;-69
2022/04/12 21:02:44;;;;;;;45.53;15.73;;;;;;;;;;4986520;28;20113;-68
2022/04/12 21:05:31;;;;;;;45.35;14.55;;;;;;;;;;4993251;28;20072;-68
2022/04/12 21:07:58;;;;;;;51.13;16.52;;;;;;;;;;4989726;28;20038;-70
2022/04/12 21:11:15;;;;;;;43.15;16.63;;;;;;;;;;4993187;28;20034;-69
2022/04/12 21:13:42;;;;;;;37.65;14.43;;;;;;;;;;4981360;28;20405;-69
2022/04/12 21:16:07;;;;;;;41.30;16.23;;;;;;;;;;4981776;28;20031;-69
2022/04/12 21:18:43;;;;;;;36.22;14.85;;;;;;;;;;4973932;28;20517;-69
2022/04/12 21:21:08;;;;;;;31.35;15.00;;;;;;;;;;4982222;28;20041;-69
2022/04/12 21:23:34;;;;;;;47.78;16.60;;;;;;;;;;4991419;28;20390;-69
2022/04/12 21:25:59;;;;;;;46.83;15.13;;;;;;;;;;4987735;28;20030;-69
2022/04/12 21:28:46;;;;;;;32.33;12.95;;;;;;;;;;4998047;28;20042;-68
2022/04/12 21:32:04;;;;;;;30.02;15.00;;;;;;;;;;4985515;28;20026;-70
2022/04/12 21:35:06;;;;;;;36.75;13.25;;;;;;;;;;4979347;28;20041;-69
2022/04/12 21:38:28;;;;;;;40.30;14.73;;;;;;;;;;5009371;28;20033;-69
2022/04/12 21:41:11;;;;;;;36.72;12.80;;;;;;;;;;4988648;28;20034;-69
2022/04/12 21:44:17;;;;;;;29.35;10.70;;;;;;;;;;4992845;28;20031;-69
2022/04/12 21:47:39;;;;;;;32.63;9.68;;;;;;;;;;4986195;28;20027;-69
2022/04/12 21:50:56;;;;;;;28.17;10.20;;;;;;;;;;4995736;28;20121;-70
2022/04/12 21:54:14;;;;;;;34.72;9.80;;;;;;;;;;4988728;28;20371;-69
2022/04/12 21:57:13;;;;;;;27.90;8.63;;;;;;;;;;4984348;28;20452;-68
2022/04/12 21:59:41;;;;;;;25.70;8.43;;;;;;;;;;4988603;28;20436;-69
2022/04/12 22:02:07;;;;;;;28.95;9.45;;;;;;;;;;4996774;28;20046;-69
2022/04/12 22:04:45;;;;;;;27.08;8.63;;;;;;;;;;4992392;28;20506;-69
2022/04/12 22:07:11;;;;;;;29.15;8.50;;;;;;;;;;4980538;28;20027;-69
2022/04/12 22:09:36;;;;;;;21.33;8.55;;;;;;;;;;4974561;28;20054;-69
2022/04/12 22:12:08;;;;;;;27.23;8.57;;;;;;;;;;4986121;28;20030;-69
2022/04/12 22:14:35;;;;;;;27.30;8.68;;;;;;;;;;4974429;28;20066;-69
2022/04/12 22:17:53;;;;;;;32.28;8.02;;;;;;;;;;4994066;28;20458;-69
2022/04/12 22:20:36;;;;;;;31.00;8.98;;;;;;;;;;4993140;28;20101;-68
2022/04/12 22:23:11;;;;;;;23.47;9.23;;;;;;;;;;4977156;28;20035;-69
2022/04/12 22:26:29;;;;;;;27.95;8.13;;;;;;;;;;4984168;28;20031;-69
2022/04/12 22:29:44;;;;;;;35.08;9.13;;;;;;;;;;4981121;28;20031;-68
2022/04/12 22:32:24;;;;;;;22.42;8.38;;;;;;;;;;4978967;28;20042;-68
2022/04/12 22:35:14;;;;;;;28.02;7.15;;;;;;;;;;4990980;28;20113;-69
2022/04/12 22:38:29;;;;;;;30.10;7.47;;;;;;;;;;4982151;28;20130;-69
2022/04/12 22:40:54;;;;;;;21.98;6.82;;;;;;;;;;4986265;28;20044;-68
2022/04/12 22:44:09;;;;;;;15.30;7.00;;;;;;;;;;4989818;28;20031;-69
2022/04/12 22:46:37;;;;;;;22.45;6.15;;;;;;;;;;4987643;28;20042;-69
2022/04/12 22:49:55;;;;;;;25.02;6.50;;;;;;;;;;4992761;28;20039;-69
2022/04/12 22:53:08;;;;;;;14.23;6.07;;;;;;;;;;4990079;28;20049;-69
2022/04/12 22:55:34;;;;;;;21.95;6.22;;;;;;;;;;4992360;28;20034;-69
2022/04/12 22:57:59;;;;;;;26.02;5.85;;;;;;;;;;4992563;28;20053;-69
2022/04/12 23:00:27;;;;;;;16.17;5.82;;;;;;;;;;4982091;28;20080;-70
2022/04/12 23:03:44;;;;;;;19.75;6.00;;;;;;;;;;4981200;28;20498;-68
2022/04/12 23:06:09;;;;;;;15.93;6.47;;;;;;;;;;4977825;28;20039;-69
2022/04/12 23:08:34;;;;;;;26.63;6.53;;;;;;;;;;4980221;28;20057;-69
2022/04/12 23:11:00;;;;;;;15.38;6.63;;;;;;;;;;4974702;28;20118;-69
2022/04/12 23:13:25;;;;;;;14.65;6.00;;;;;;;;;;4973969;28;20030;-69
2022/04/12 23:15:52;;;;;;;15.57;5.80;;;;;;;;;;4976433;28;20130;-70
2022/04/12 23:18:17;;;;;;;18.08;6.35;;;;;;;;;;4987086;28;20066;-70
2022/04/12 23:20:43;;;;;;;24.60;6.03;;;;;;;;;;4978204;28;20070;-70
2022/04/12 23:23:09;;;;;;;12.88;5.88;;;;;;;;;;4994740;28;20046;-70
2022/04/12 23:25:34;;;;;;;16.23;6.38;;;;;;;;;;5009478;28;20042;-70
2022/04/12 23:28:12;;;;;;;20.90;6.75;;;;;;;;;;4999321;28;20398;-69
2022/04/12 23:30:38;;;;;;;17.65;6.32;;;;;;;;;;5009615;28;20052;-70
2022/04/12 23:33:04;;;;;;;24.00;6.40;;;;;;;;;;4996796;28;20022;-70
2022/04/12 23:35:29;;;;;;;18.65;5.93;;;;;;;;;;4989122;28;20161;-70
2022/04/12 23:38:08;;;;;;;19.88;6.32;;;;;;;;;;4992318;28;20900;-70
2022/04/12 23:40:34;;;;;;;22.67;6.55;;;;;;;;;;4986943;28;20026;-70
2022/04/12 23:43:00;;;;;;;22.83;6.50;;;;;;;;;;4986670;28;20034;-70
2022/04/12 23:45:26;;;;;;;11.73;5.75;;;;;;;;;;4995462;28;20520;-69
2022/04/12 23:47:52;;;;;;;15.43;5.45;;;;;;;;;;5008980;28;20026;-70
2022/04/12 23:50:17;;;;;;;13.32;5.50;;;;;;;;;;4995656;28;20100;-70
2022/04/12 23:52:44;;;;;;;15.35;5.38;;;;;;;;;;5002403;28;20026;-70